Bakerton, West Virginia
Current Conditions -  °F | °C
As of 11:53 AM on Wednesday 22 Oct 2014 (Local Time) from KMRB Reporting Station
Overcast Overcast  
Wind Chill: 55°   Ceiling: 2600
Heat Index: 55°   Visibility: 10mi
Dew Point: 43°   Wind: 15mph
Humidity: 64%   Direction: 340°NNW
Pressure: 30.01"   Gusts: 24mph
Location:  39.36°N, 77.76°W
Report Text: KMRB 221553Z 34013G21KT 10SM BKN026 OVC034 13/06 A3001 RMK AO2 SLP163 T01280061
Loading
Personal Weather Stations






























Interactive Weather Map
Tropical Storm Tracking
New forecast layout! Learn more

10-Day Weather Forecast

Advertisements
Track Severe Weather on mobile